Time;durP1;ratioP1;P1;durP2;ratioP2;P2;SDS_P1;SDS_P2;PMS_P1;PMS_P2;Temp;Humidity;BMP_temperature;BMP_pressure;BME280_temperature;BME280_humidity;BME280_pressure;Samples;Min_cycle;Max_cycle;Signal;HPM_P1;HPM_P2
2021/08/18 00:01:47;;;;;;;23.38;6.32;;;;;;;;;;5045758;28;20140;-79
2021/08/18 00:04:14;;;;;;;24.10;6.22;;;;;;;;;;5046094;28;20061;-79
2021/08/18 00:06:42;;;;;;;20.25;5.65;;;;;;;;;;5039798;28;20124;-79
2021/08/18 00:09:09;;;;;;;18.92;6.47;;;;;;;;;;5040737;28;20291;-80
2021/08/18 00:11:36;;;;;;;25.15;6.05;;;;;;;;;;5046058;28;20128;-80
2021/08/18 00:14:03;;;;;;;22.30;7.00;;;;;;;;;;5044917;28;20077;-79
2021/08/18 00:16:30;;;;;;;20.08;6.32;;;;;;;;;;5045158;28;20119;-79
2021/08/18 00:18:58;;;;;;;24.65;6.97;;;;;;;;;;5046163;28;20037;-79
2021/08/18 00:21:25;;;;;;;24.38;6.88;;;;;;;;;;5046749;28;20512;-79
2021/08/18 00:23:53;;;;;;;20.15;5.53;;;;;;;;;;5045338;28;20079;-79
2021/08/18 00:26:27;;;;;;;22.35;7.13;;;;;;;;;;5045877;28;20125;-78
2021/08/18 00:28:55;;;;;;;24.48;6.38;;;;;;;;;;5045850;28;20044;-79
2021/08/18 00:31:22;;;;;;;20.00;6.68;;;;;;;;;;5044715;28;20060;-79
2021/08/18 00:33:50;;;;;;;19.10;6.93;;;;;;;;;;5046466;28;20861;-80
2021/08/18 00:36:17;;;;;;;23.08;6.25;;;;;;;;;;5044716;28;20048;-79
2021/08/18 00:38:44;;;;;;;18.38;6.68;;;;;;;;;;5044883;28;20818;-79
2021/08/18 00:41:12;;;;;;;21.65;7.22;;;;;;;;;;5044856;28;20123;-79
2021/08/18 00:43:39;;;;;;;16.02;6.03;;;;;;;;;;5046086;28;20732;-79
2021/08/18 00:46:06;;;;;;;21.70;7.82;;;;;;;;;;5042766;28;20132;-79
2021/08/18 00:48:33;;;;;;;15.18;6.20;;;;;;;;;;5044740;28;20045;-79
2021/08/18 00:51:01;;;;;;;20.50;6.80;;;;;;;;;;5044900;28;20164;-79
2021/08/18 00:53:28;;;;;;;24.58;7.28;;;;;;;;;;5044905;28;20128;-79
2021/08/18 00:55:56;;;;;;;19.55;6.60;;;;;;;;;;5045462;28;20132;-79
2021/08/18 00:58:23;;;;;;;21.02;6.93;;;;;;;;;;5044026;28;20146;-79
2021/08/18 01:00:50;;;;;;;19.40;6.75;;;;;;;;;;5046179;28;20041;-79
2021/08/18 01:03:18;;;;;;;23.05;7.55;;;;;;;;;;5044892;28;20057;-80
2021/08/18 01:05:45;;;;;;;24.00;7.47;;;;;;;;;;5044616;28;20421;-79
2021/08/18 01:08:12;;;;;;;21.55;6.80;;;;;;;;;;5042836;28;20475;-79
2021/08/18 01:10:40;;;;;;;22.15;6.90;;;;;;;;;;5044637;28;20080;-79
2021/08/18 01:13:07;;;;;;;18.20;6.53;;;;;;;;;;5043507;28;20539;-80
2021/08/18 01:15:35;;;;;;;20.73;6.82;;;;;;;;;;5042991;28;20051;-79
2021/08/18 01:18:04;;;;;;;20.23;6.60;;;;;;;;;;5046039;28;20049;-80
2021/08/18 01:20:36;;;;;;;22.25;7.65;;;;;;;;;;5065065;28;20043;-79
2021/08/18 01:23:05;;;;;;;21.13;7.03;;;;;;;;;;5065610;28;20084;-78
2021/08/18 01:25:32;;;;;;;22.20;7.28;;;;;;;;;;5049022;28;20132;-79
2021/08/18 01:28:01;;;;;;;24.95;7.30;;;;;;;;;;5046039;28;20174;-79
2021/08/18 01:30:29;;;;;;;25.30;7.15;;;;;;;;;;5044921;28;20504;-78
2021/08/18 01:32:58;;;;;;;25.02;8.15;;;;;;;;;;5048794;28;20136;-78
2021/08/18 01:35:30;;;;;;;24.88;8.80;;;;;;;;;;5049183;28;20537;-79
2021/08/18 01:37:57;;;;;;;20.98;7.03;;;;;;;;;;5049511;28;20565;-80
2021/08/18 01:40:25;;;;;;;26.63;7.63;;;;;;;;;;5048922;28;20041;-78
2021/08/18 01:42:52;;;;;;;29.48;8.48;;;;;;;;;;5047622;28;20079;-79
2021/08/18 01:45:24;;;;;;;22.85;7.47;;;;;;;;;;5048983;28;20051;-79
2021/08/18 01:47:52;;;;;;;21.15;7.05;;;;;;;;;;5047665;28;20135;-78
2021/08/18 01:50:20;;;;;;;25.88;7.15;;;;;;;;;;5048528;28;20139;-79
2021/08/18 01:52:52;;;;;;;18.92;6.82;;;;;;;;;;5047390;28;20051;-78
2021/08/18 01:55:20;;;;;;;22.75;8.32;;;;;;;;;;5048543;28;20583;-78
2021/08/18 01:57:47;;;;;;;28.95;7.80;;;;;;;;;;5049503;28;20455;-78
2021/08/18 02:00:15;;;;;;;20.40;7.30;;;;;;;;;;5048644;28;20502;-79
2021/08/18 02:02:44;;;;;;;26.48;7.68;;;;;;;;;;5046939;28;20057;-79
2021/08/18 02:05:14;;;;;;;25.73;8.20;;;;;;;;;;5049323;28;20049;-79
2021/08/18 02:07:41;;;;;;;20.48;7.32;;;;;;;;;;5048357;28;20454;-79
2021/08/18 02:10:10;;;;;;;23.98;8.15;;;;;;;;;;5047869;28;20080;-78
2021/08/18 02:12:38;;;;;;;22.52;8.18;;;;;;;;;;5048065;28;20084;-79
2021/08/18 02:15:06;;;;;;;24.08;8.50;;;;;;;;;;5047037;28;20045;-79
2021/08/18 02:17:33;;;;;;;23.33;8.07;;;;;;;;;;5048248;28;20059;-79
2021/08/18 02:20:00;;;;;;;24.13;7.95;;;;;;;;;;5035406;28;20572;-78
2021/08/18 02:22:28;;;;;;;23.45;8.07;;;;;;;;;;5047897;28;20493;-79
2021/08/18 02:24:55;;;;;;;21.33;7.50;;;;;;;;;;5048303;28;20081;-79
2021/08/18 02:27:22;;;;;;;27.20;8.45;;;;;;;;;;5047535;28;20108;-79
2021/08/18 02:29:49;;;;;;;31.08;8.98;;;;;;;;;;5047267;28;20160;-78
2021/08/18 02:32:16;;;;;;;26.50;8.80;;;;;;;;;;5047902;28;20052;-79
2021/08/18 02:34:44;;;;;;;23.10;8.02;;;;;;;;;;5047724;28;20072;-78
2021/08/18 02:37:11;;;;;;;27.73;8.32;;;;;;;;;;5048155;28;20436;-79
2021/08/18 02:39:38;;;;;;;23.85;7.95;;;;;;;;;;5046944;28;20045;-79
2021/08/18 02:42:05;;;;;;;22.55;8.27;;;;;;;;;;5047609;28;20073;-78
2021/08/18 02:44:33;;;;;;;27.42;7.72;;;;;;;;;;5047785;28;20544;-79
2021/08/18 02:47:01;;;;;;;20.60;7.40;;;;;;;;;;5046838;28;20135;-79
2021/08/18 02:49:28;;;;;;;27.40;8.07;;;;;;;;;;5048056;28;20063;-79
2021/08/18 02:51:55;;;;;;;22.13;7.70;;;;;;;;;;5048026;28;20087;-79
2021/08/18 02:54:24;;;;;;;33.08;9.23;;;;;;;;;;5047820;28;20498;-79
2021/08/18 02:56:51;;;;;;;25.55;7.93;;;;;;;;;;5046522;28;20531;-80
2021/08/18 02:59:19;;;;;;;24.85;7.55;;;;;;;;;;5047176;28;20052;-79
2021/08/18 03:01:47;;;;;;;23.05;8.40;;;;;;;;;;5047712;28;20485;-79
2021/08/18 03:04:15;;;;;;;26.80;8.98;;;;;;;;;;5045451;28;20665;-79
2021/08/18 03:06:42;;;;;;;27.45;8.23;;;;;;;;;;5046807;28;20059;-79
2021/08/18 03:09:10;;;;;;;25.90;7.93;;;;;;;;;;5046763;28;20147;-79
2021/08/18 03:11:37;;;;;;;26.63;7.90;;;;;;;;;;5046938;28;20127;-79
2021/08/18 03:14:05;;;;;;;25.63;8.02;;;;;;;;;;5025320;28;20049;-78
2021/08/18 03:16:32;;;;;;;19.77;8.18;;;;;;;;;;5041817;28;20120;-78
2021/08/18 03:18:59;;;;;;;28.90;8.27;;;;;;;;;;5044182;28;20053;-78
2021/08/18 03:21:27;;;;;;;36.22;9.05;;;;;;;;;;5038717;28;20124;-79
2021/08/18 03:23:55;;;;;;;28.20;8.60;;;;;;;;;;5032606;28;20080;-78
2021/08/18 03:26:22;;;;;;;24.65;9.07;;;;;;;;;;5045985;28;20136;-78
2021/08/18 03:28:49;;;;;;;20.85;8.23;;;;;;;;;;5044772;28;20094;-79
2021/08/18 03:31:16;;;;;;;29.40;9.02;;;;;;;;;;5046543;28;20583;-79
2021/08/18 03:33:44;;;;;;;23.23;8.82;;;;;;;;;;5046531;28;20051;-79
2021/08/18 03:36:11;;;;;;;35.50;9.73;;;;;;;;;;5047411;28;20045;-78
2021/08/18 03:38:38;;;;;;;25.33;8.50;;;;;;;;;;5046778;28;20049;-79
2021/08/18 03:41:06;;;;;;;24.83;9.18;;;;;;;;;;5046159;28;20123;-78
2021/08/18 03:43:33;;;;;;;29.48;9.07;;;;;;;;;;5045006;28;20430;-78
2021/08/18 03:46:01;;;;;;;24.67;9.00;;;;;;;;;;5046800;28;20307;-78
2021/08/18 03:48:28;;;;;;;27.35;9.45;;;;;;;;;;5046417;28;20136;-78
2021/08/18 03:50:56;;;;;;;43.22;12.13;;;;;;;;;;5045136;28;20080;-78
2021/08/18 03:53:23;;;;;;;23.17;10.18;;;;;;;;;;5046504;28;20136;-78
2021/08/18 03:55:50;;;;;;;27.63;9.43;;;;;;;;;;5046170;28;20128;-78
2021/08/18 03:58:17;;;;;;;27.58;9.85;;;;;;;;;;5045012;28;20052;-78
2021/08/18 04:00:45;;;;;;;25.45;9.52;;;;;;;;;;5044736;28;20649;-78
2021/08/18 04:03:12;;;;;;;27.58;9.75;;;;;;;;;;5046040;28;20083;-78
2021/08/18 04:05:40;;;;;;;26.88;9.63;;;;;;;;;;5045135;28;20656;-79
2021/08/18 04:08:08;;;;;;;33.08;10.27;;;;;;;;;;5046276;28;20076;-79
2021/08/18 04:10:35;;;;;;;24.08;9.65;;;;;;;;;;5046825;28;20140;-79
2021/08/18 04:13:03;;;;;;;29.45;10.43;;;;;;;;;;5045480;28;20084;-79
2021/08/18 04:15:35;;;;;;;31.15;9.98;;;;;;;;;;5046309;28;20401;-78
2021/08/18 04:18:02;;;;;;;31.20;10.07;;;;;;;;;;5044863;28;20052;-79
2021/08/18 04:20:29;;;;;;;30.17;10.32;;;;;;;;;;5055456;28;20123;-79
2021/08/18 04:22:57;;;;;;;23.35;9.80;;;;;;;;;;5061907;28;20135;-79
2021/08/18 04:25:24;;;;;;;27.73;10.93;;;;;;;;;;5056025;28;20096;-79
2021/08/18 04:27:51;;;;;;;26.10;9.93;;;;;;;;;;5046467;28;20045;-79
2021/08/18 04:30:18;;;;;;;22.08;9.32;;;;;;;;;;5046524;28;20051;-79
2021/08/18 04:32:45;;;;;;;26.60;9.45;;;;;;;;;;5044952;28;20059;-78
2021/08/18 04:35:13;;;;;;;25.45;11.02;;;;;;;;;;5046234;28;20045;-79
2021/08/18 04:37:41;;;;;;;22.85;8.93;;;;;;;;;;5044387;28;20041;-79
2021/08/18 04:40:12;;;;;;;24.45;9.38;;;;;;;;;;5044551;28;20131;-78
2021/08/18 04:42:41;;;;;;;25.20;10.23;;;;;;;;;;5043540;28;20111;-79
2021/08/18 04:45:10;;;;;;;27.80;11.38;;;;;;;;;;5045471;28;20137;-78
2021/08/18 04:47:37;;;;;;;29.50;9.43;;;;;;;;;;5042157;28;20114;-79
2021/08/18 04:50:06;;;;;;;24.92;9.70;;;;;;;;;;5042881;28;20318;-78
2021/08/18 04:52:34;;;;;;;23.08;9.70;;;;;;;;;;5044464;28;20077;-79
2021/08/18 04:55:01;;;;;;;30.88;9.38;;;;;;;;;;5046281;28;20089;-80
2021/08/18 04:57:29;;;;;;;21.63;9.07;;;;;;;;;;5045362;28;20055;-79
2021/08/18 04:59:56;;;;;;;33.95;9.93;;;;;;;;;;5045959;28;20048;-78
2021/08/18 05:02:25;;;;;;;19.25;9.10;;;;;;;;;;5045805;28;20053;-78
2021/08/18 05:04:53;;;;;;;21.17;9.93;;;;;;;;;;5046753;28;20057;-78
2021/08/18 05:07:20;;;;;;;22.90;9.32;;;;;;;;;;5052100;28;20135;-81
2021/08/18 05:09:48;;;;;;;20.92;9.18;;;;;;;;;;5049200;28;20124;-79
2021/08/18 05:12:15;;;;;;;18.55;9.40;;;;;;;;;;5051201;28;20049;-81
2021/08/18 05:14:42;;;;;;;23.88;9.02;;;;;;;;;;5051098;28;20136;-79
2021/08/18 05:17:09;;;;;;;22.58;9.18;;;;;;;;;;5051955;28;20131;-80
2021/08/18 05:19:38;;;;;;;19.67;9.65;;;;;;;;;;5050116;28;20516;-83
2021/08/18 05:22:05;;;;;;;20.20;9.60;;;;;;;;;;5051500;28;20076;-80
2021/08/18 05:24:32;;;;;;;19.23;8.68;;;;;;;;;;5050511;28;20135;-79
2021/08/18 05:26:59;;;;;;;25.17;9.38;;;;;;;;;;5048030;28;20052;-77
2021/08/18 05:29:27;;;;;;;24.77;9.43;;;;;;;;;;5049549;28;20076;-78
2021/08/18 05:31:54;;;;;;;22.67;10.07;;;;;;;;;;5047576;28;20159;-79
2021/08/18 05:34:21;;;;;;;16.48;8.18;;;;;;;;;;5048459;28;20126;-80
2021/08/18 05:36:48;;;;;;;17.60;8.88;;;;;;;;;;5048233;28;20104;-79
2021/08/18 05:39:16;;;;;;;20.35;8.23;;;;;;;;;;5048980;28;20045;-83
2021/08/18 05:41:43;;;;;;;19.75;7.78;;;;;;;;;;5049463;28;20044;-82
2021/08/18 05:44:10;;;;;;;20.65;9.00;;;;;;;;;;5051459;28;20080;-89
2021/08/18 05:46:37;;;;;;;15.80;7.90;;;;;;;;;;5052142;28;20084;-83
2021/08/18 05:49:05;;;;;;;19.80;8.50;;;;;;;;;;5052195;28;20272;-83
2021/08/18 05:51:32;;;;;;;18.02;8.93;;;;;;;;;;5053636;28;20057;-83
2021/08/18 05:54:02;;;;;;;21.08;8.85;;;;;;;;;;5052009;28;20156;-83
2021/08/18 05:56:29;;;;;;;19.92;8.18;;;;;;;;;;5051401;28;20076;-81
2021/08/18 05:58:56;;;;;;;24.60;8.73;;;;;;;;;;5051273;28;20076;-84
2021/08/18 06:01:24;;;;;;;18.23;8.60;;;;;;;;;;5052763;28;20075;-82
2021/08/18 06:03:51;;;;;;;16.98;8.13;;;;;;;;;;5050607;28;20049;-83
2021/08/18 06:06:18;;;;;;;23.17;8.57;;;;;;;;;;5047685;28;20557;-82
2021/08/18 06:08:45;;;;;;;18.15;8.43;;;;;;;;;;5049780;28;20088;-82
2021/08/18 06:11:13;;;;;;;21.55;8.52;;;;;;;;;;5047113;28;20144;-82
2021/08/18 06:13:41;;;;;;;18.33;8.55;;;;;;;;;;5051406;28;20106;-82
2021/08/18 06:16:08;;;;;;;15.43;8.05;;;;;;;;;;5050804;28;20077;-83
2021/08/18 06:18:35;;;;;;;31.70;9.95;;;;;;;;;;5052801;28;20053;-82
2021/08/18 06:21:03;;;;;;;15.80;7.95;;;;;;;;;;5052114;28;20128;-81
2021/08/18 06:23:33;;;;;;;25.50;9.38;;;;;;;;;;5051377;28;20091;-83
2021/08/18 06:26:01;;;;;;;21.17;8.15;;;;;;;;;;5051056;28;20132;-85
2021/08/18 06:28:28;;;;;;;20.55;8.93;;;;;;;;;;5052163;28;20133;-83
2021/08/18 06:30:57;;;;;;;16.02;8.10;;;;;;;;;;5052786;28;20079;-84
2021/08/18 06:33:24;;;;;;;16.38;7.40;;;;;;;;;;5050767;28;20056;-83
2021/08/18 06:35:51;;;;;;;14.30;8.00;;;;;;;;;;5051229;28;20132;-85
2021/08/18 06:38:18;;;;;;;18.08;7.40;;;;;;;;;;5051043;28;20060;-84
2021/08/18 06:40:46;;;;;;;18.30;7.82;;;;;;;;;;5052334;28;20068;-84
2021/08/18 06:43:13;;;;;;;17.20;7.43;;;;;;;;;;5050964;28;20113;-84
2021/08/18 06:45:40;;;;;;;16.80;7.57;;;;;;;;;;5052246;28;20088;-85
2021/08/18 06:48:07;;;;;;;14.82;6.85;;;;;;;;;;5050661;28;20065;-83
2021/08/18 06:50:34;;;;;;;16.05;8.07;;;;;;;;;;5050727;28;20740;-83
2021/08/18 06:53:02;;;;;;;14.95;7.00;;;;;;;;;;5050855;28;20049;-84
2021/08/18 06:55:30;;;;;;;18.20;7.88;;;;;;;;;;5044698;28;20152;-83
2021/08/18 06:57:57;;;;;;;14.02;6.82;;;;;;;;;;5049919;28;20052;-84
2021/08/18 07:00:24;;;;;;;16.77;7.50;;;;;;;;;;5050445;28;20074;-85
2021/08/18 07:02:52;;;;;;;19.98;7.50;;;;;;;;;;5051559;28;20051;-83
2021/08/18 07:05:30;;;;;;;18.77;7.47;;;;;;;;;;5050538;28;20053;-84
2021/08/18 07:07:58;;;;;;;16.25;6.28;;;;;;;;;;5051287;28;20045;-84
2021/08/18 07:10:26;;;;;;;15.18;7.38;;;;;;;;;;5050294;28;20136;-83
2021/08/18 07:12:54;;;;;;;18.13;7.47;;;;;;;;;;5049521;28;20077;-85
2021/08/18 07:15:22;;;;;;;14.93;7.32;;;;;;;;;;5051472;28;20835;-84
2021/08/18 07:17:49;;;;;;;15.00;7.05;;;;;;;;;;5050205;28;20076;-84
2021/08/18 07:20:16;;;;;;;17.23;7.50;;;;;;;;;;5049676;28;20049;-84
2021/08/18 07:22:46;;;;;;;21.08;7.82;;;;;;;;;;5049967;28;20041;-84
2021/08/18 07:25:13;;;;;;;14.23;7.20;;;;;;;;;;5050867;28;20091;-84
2021/08/18 07:27:41;;;;;;;18.98;7.53;;;;;;;;;;5051554;28;20053;-84
2021/08/18 07:30:11;;;;;;;17.98;6.93;;;;;;;;;;5050903;28;20140;-84
2021/08/18 07:32:40;;;;;;;14.43;7.45;;;;;;;;;;5050665;28;20064;-84
2021/08/18 07:35:08;;;;;;;14.20;7.18;;;;;;;;;;5051101;28;20143;-84
2021/08/18 07:37:35;;;;;;;18.00;7.60;;;;;;;;;;5050760;28;20490;-85
2021/08/18 07:40:04;;;;;;;16.90;6.78;;;;;;;;;;5045341;28;20042;-84
2021/08/18 07:42:32;;;;;;;19.60;7.47;;;;;;;;;;5049221;28;20140;-82
2021/08/18 07:45:07;;;;;;;17.02;8.25;;;;;;;;;;5051320;28;20096;-83
2021/08/18 07:47:36;;;;;;;14.60;6.60;;;;;;;;;;5050716;28;20064;-82
2021/08/18 07:50:05;;;;;;;12.45;6.57;;;;;;;;;;5050674;28;20080;-83
2021/08/18 07:52:32;;;;;;;17.45;7.57;;;;;;;;;;5049772;28;20084;-84
2021/08/18 07:55:00;;;;;;;15.90;7.20;;;;;;;;;;5044432;28;20107;-85
2021/08/18 07:57:28;;;;;;;17.02;6.47;;;;;;;;;;5047990;28;20453;-84
2021/08/18 07:59:55;;;;;;;12.95;6.60;;;;;;;;;;5050102;28;20593;-84
2021/08/18 08:02:22;;;;;;;16.00;7.45;;;;;;;;;;5050426;28;20441;-84
2021/08/18 08:04:54;;;;;;;15.23;6.63;;;;;;;;;;5050299;28;20083;-85
2021/08/18 08:07:23;;;;;;;14.13;6.55;;;;;;;;;;5051682;28;20057;-84
2021/08/18 08:09:53;;;;;;;12.75;7.38;;;;;;;;;;5049978;28;20088;-84
2021/08/18 08:12:21;;;;;;;12.98;7.25;;;;;;;;;;5050777;28;20087;-83
2021/08/18 08:14:49;;;;;;;21.42;8.27;;;;;;;;;;5050848;28;20481;-83
2021/08/18 08:17:16;;;;;;;13.02;6.25;;;;;;;;;;5049421;28;20121;-84
2021/08/18 08:19:44;;;;;;;16.08;5.90;;;;;;;;;;5049382;28;20142;-85
2021/08/18 08:22:11;;;;;;;14.57;5.85;;;;;;;;;;5049451;28;20080;-85
2021/08/18 08:24:38;;;;;;;15.98;7.15;;;;;;;;;;5047991;28;20045;-85
2021/08/18 08:27:06;;;;;;;14.57;6.85;;;;;;;;;;5045113;28;20045;-84
2021/08/18 08:29:33;;;;;;;12.77;6.22;;;;;;;;;;5050433;28;20120;-83
2021/08/18 08:32:00;;;;;;;12.38;6.53;;;;;;;;;;5049648;28;20114;-83
2021/08/18 08:34:27;;;;;;;12.30;6.35;;;;;;;;;;5049236;28;20092;-85
2021/08/18 08:36:55;;;;;;;15.18;7.18;;;;;;;;;;5050026;28;20053;-85
2021/08/18 08:39:22;;;;;;;18.55;6.80;;;;;;;;;;5051623;28;20460;-83
2021/08/18 08:41:50;;;;;;;16.17;6.88;;;;;;;;;;5053252;28;20056;-83
2021/08/18 08:44:18;;;;;;;12.93;6.55;;;;;;;;;;5052834;28;20128;-84
2021/08/18 08:46:47;;;;;;;16.63;6.22;;;;;;;;;;5053416;28;20049;-83
2021/08/18 08:49:15;;;;;;;15.25;6.43;;;;;;;;;;5053550;28;20166;-83
2021/08/18 08:51:45;;;;;;;11.63;5.97;;;;;;;;;;5053654;28;20140;-82
2021/08/18 08:54:14;;;;;;;17.77;6.93;;;;;;;;;;5054818;28;20056;-84
2021/08/18 08:56:42;;;;;;;16.33;6.68;;;;;;;;;;5054481;28;20083;-83
2021/08/18 08:59:10;;;;;;;16.83;7.50;;;;;;;;;;5054812;28;20041;-83
2021/08/18 09:01:56;;;;;;;14.88;7.65;;;;;;;;;;5053494;28;20048;-84
2021/08/18 09:04:28;;;;;;;12.80;6.90;;;;;;;;;;5053290;28;20059;-84
2021/08/18 09:07:05;;;;;;;12.40;6.47;;;;;;;;;;5054458;28;20053;-83
2021/08/18 09:09:33;;;;;;;12.52;6.97;;;;;;;;;;5054402;28;20131;-84
2021/08/18 09:12:04;;;;;;;13.23;6.80;;;;;;;;;;5054387;28;20057;-83
2021/08/18 09:14:33;;;;;;;11.80;6.50;;;;;;;;;;5053808;28;20051;-85
2021/08/18 09:17:01;;;;;;;16.42;7.05;;;;;;;;;;5053506;28;20494;-85
2021/08/18 09:19:29;;;;;;;14.57;6.32;;;;;;;;;;5055142;28;20474;-83
2021/08/18 09:22:07;;;;;;;13.13;6.20;;;;;;;;;;5052888;28;20049;-83
2021/08/18 09:24:34;;;;;;;12.80;6.38;;;;;;;;;;5053144;28;20132;-84
2021/08/18 09:27:09;;;;;;;12.20;6.90;;;;;;;;;;5053885;28;20049;-84
2021/08/18 09:29:44;;;;;;;13.07;6.07;;;;;;;;;;5054038;28;20139;-83
2021/08/18 09:32:28;;;;;;;11.40;6.07;;;;;;;;;;5037921;28;20049;-84
2021/08/18 09:35:10;;;;;;;11.88;6.40;;;;;;;;;;5054306;28;20126;-84
2021/08/18 09:37:39;;;;;;;10.65;5.65;;;;;;;;;;5054026;28;20156;-85
2021/08/18 09:40:17;;;;;;;13.15;5.75;;;;;;;;;;5052262;28;20079;-83
2021/08/18 09:42:45;;;;;;;10.15;5.80;;;;;;;;;;5050954;28;20079;-83
2021/08/18 09:45:16;;;;;;;8.57;4.97;;;;;;;;;;5054327;28;20053;-83
2021/08/18 09:47:51;;;;;;;11.15;6.25;;;;;;;;;;5052637;28;20050;-83
2021/08/18 09:50:21;;;;;;;8.05;5.13;;;;;;;;;;5052895;28;20128;-83
2021/08/18 09:52:49;;;;;;;10.80;4.95;;;;;;;;;;5051522;28;20053;-84
2021/08/18 09:55:21;;;;;;;10.18;4.95;;;;;;;;;;5045273;28;20136;-84
2021/08/18 09:57:49;;;;;;;7.00;4.88;;;;;;;;;;5052206;28;20047;-84
2021/08/18 10:00:16;;;;;;;8.00;4.10;;;;;;;;;;5051462;28;20127;-83
2021/08/18 10:02:45;;;;;;;10.00;5.10;;;;;;;;;;5051372;28;20509;-83
2021/08/18 10:05:16;;;;;;;6.68;4.00;;;;;;;;;;5051887;28;20091;-84
2021/08/18 10:07:44;;;;;;;5.97;4.05;;;;;;;;;;5052275;28;20049;-84
2021/08/18 10:10:12;;;;;;;6.47;4.22;;;;;;;;;;5052242;28;20110;-84
2021/08/18 10:12:39;;;;;;;7.60;4.53;;;;;;;;;;5053286;28;20496;-84
2021/08/18 10:15:06;;;;;;;7.10;4.82;;;;;;;;;;5053276;28;20076;-84
2021/08/18 10:17:39;;;;;;;7.22;4.20;;;;;;;;;;5051858;28;20140;-84
2021/08/18 10:20:09;;;;;;;9.30;5.18;;;;;;;;;;5051639;28;20068;-84
2021/08/18 10:22:38;;;;;;;6.93;5.03;;;;;;;;;;5049641;28;20478;-84
2021/08/18 10:25:24;;;;;;;9.15;5.32;;;;;;;;;;5047759;28;20520;-83
2021/08/18 10:27:53;;;;;;;7.85;5.60;;;;;;;;;;5045887;28;20663;-83
2021/08/18 10:30:23;;;;;;;8.80;6.05;;;;;;;;;;5049884;28;20063;-85
2021/08/18 10:32:51;;;;;;;9.07;5.15;;;;;;;;;;5051342;28;20053;-84
2021/08/18 10:35:37;;;;;;;9.02;4.85;;;;;;;;;;5051990;28;20053;-84
2021/08/18 10:38:23;;;;;;;12.20;5.05;;;;;;;;;;5051294;28;20140;-84
2021/08/18 10:40:51;;;;;;;9.15;5.22;;;;;;;;;;5043145;28;20076;-84
2021/08/18 10:43:38;;;;;;;8.68;4.63;;;;;;;;;;5051356;28;20103;-85
2021/08/18 10:46:07;;;;;;;9.73;4.30;;;;;;;;;;5052232;28;20055;-84
2021/08/18 10:48:58;;;;;;;5.63;3.45;;;;;;;;;;5051583;28;20053;-84
2021/08/18 10:51:40;;;;;;;7.38;3.28;;;;;;;;;;5051745;28;20086;-82
2021/08/18 10:54:26;;;;;;;7.90;4.13;;;;;;;;;;5052284;28;20052;-85
2021/08/18 10:56:57;;;;;;;;;;;;;;;;;;5045608;28;20095;-84
2021/08/18 10:59:36;;;;;;;15.68;4.72;;;;;;;;;;5050551;28;19921;-85
2021/08/18 11:02:04;;;;;;;8.07;3.88;;;;;;;;;;5052018;28;20085;-85
2021/08/18 11:04:43;;;;;;;7.90;3.90;;;;;;;;;;5051773;28;20045;-83
2021/08/18 11:07:10;;;;;;;6.22;3.90;;;;;;;;;;5051367;28;20088;-84
2021/08/18 11:09:59;;;;;;;7.45;3.85;;;;;;;;;;5049984;28;20191;-83
2021/08/18 11:12:39;;;;;;;7.28;4.22;;;;;;;;;;5050268;28;20584;-83
2021/08/18 11:15:23;;;;;;;6.75;4.55;;;;;;;;;;5050118;28;20056;-84
2021/08/18 11:17:51;;;;;;;6.35;3.25;;;;;;;;;;5049805;28;20107;-85
2021/08/18 11:20:21;;;;;;;11.38;4.63;;;;;;;;;;5050130;28;20076;-85
2021/08/18 11:22:54;;;;;;;7.63;4.45;;;;;;;;;;5052197;28;20049;-85
2021/08/18 11:25:24;;;;;;;9.27;3.75;;;;;;;;;;5044677;28;20049;-84
2021/08/18 11:27:51;;;;;;;7.45;4.00;;;;;;;;;;5050219;28;20091;-83
2021/08/18 11:30:32;;;;;;;5.32;3.72;;;;;;;;;;5051885;28;20045;-85
2021/08/18 11:33:20;;;;;;;5.75;3.45;;;;;;;;;;5050383;28;20049;-83
2021/08/18 11:35:48;;;;;;;6.72;3.28;;;;;;;;;;5051741;28;20076;-86
2021/08/18 11:38:15;;;;;;;6.53;3.45;;;;;;;;;;5051255;28;20553;-83
2021/08/18 11:40:47;;;;;;;6.53;3.35;;;;;;;;;;5051543;28;20072;-84
2021/08/18 11:43:15;;;;;;;6.55;3.70;;;;;;;;;;5051734;28;20156;-85
2021/08/18 11:45:49;;;;;;;6.18;3.33;;;;;;;;;;5050286;28;20397;-85
2021/08/18 11:48:22;;;;;;;6.17;3.67;;;;;;;;;;5050092;28;20053;-84
2021/08/18 11:50:53;;;;;;;8.85;2.92;;;;;;;;;;5050646;28;20060;-82
2021/08/18 11:53:21;;;;;;;5.53;3.20;;;;;;;;;;5049934;28;20477;-82
2021/08/18 11:56:00;;;;;;;10.07;3.35;;;;;;;;;;5050289;28;20049;-83
2021/08/18 11:58:31;;;;;;;5.97;3.42;;;;;;;;;;5049402;28;20065;-84
2021/08/18 12:01:03;;;;;;;6.50;2.95;;;;;;;;;;5051366;28;20135;-85
2021/08/18 12:03:30;;;;;;;5.53;2.72;;;;;;;;;;5051511;28;20884;-86
2021/08/18 12:05:58;;;;;;;4.68;2.42;;;;;;;;;;5050087;28;20106;-84
2021/08/18 12:08:41;;;;;;;6.53;2.67;;;;;;;;;;5051325;28;20056;-85
2021/08/18 12:11:10;;;;;;;5.25;2.30;;;;;;;;;;5050239;28;20110;-84
2021/08/18 12:13:56;;;;;;;7.03;2.80;;;;;;;;;;5041767;28;20478;-85
2021/08/18 12:16:23;;;;;;;;;;;;;;;;;;5050270;28;20056;-84
2021/08/18 12:18:54;;;;;;;4.85;2.30;;;;;;;;;;5050343;28;20339;-84
2021/08/18 12:21:24;;;;;;;6.32;2.72;;;;;;;;;;5049828;28;20061;-83
2021/08/18 12:23:54;;;;;;;7.53;2.70;;;;;;;;;;5049670;28;20705;-84
2021/08/18 12:26:29;;;;;;;7.15;2.53;;;;;;;;;;5049531;28;20202;-85
2021/08/18 12:28:58;;;;;;;10.90;2.92;;;;;;;;;;5049692;28;20045;-86
2021/08/18 12:31:26;;;;;;;5.05;2.60;;;;;;;;;;5051376;28;20139;-84
2021/08/18 12:34:11;;;;;;;11.80;2.72;;;;;;;;;;5049803;28;20056;-85
2021/08/18 12:36:44;;;;;;;7.35;2.95;;;;;;;;;;5029718;28;20076;-85
2021/08/18 12:39:12;;;;;;;12.68;3.63;;;;;;;;;;5030635;28;20089;-84
2021/08/18 12:41:39;;;;;;;9.15;3.30;;;;;;;;;;5041491;28;20417;-84
2021/08/18 12:44:14;;;;;;;8.40;3.28;;;;;;;;;;5049649;28;20060;-85
2021/08/18 12:46:43;;;;;;;5.93;3.05;;;;;;;;;;5049905;28;20049;-83
2021/08/18 12:49:29;;;;;;;9.98;3.53;;;;;;;;;;5051367;28;20780;-82
2021/08/18 12:51:58;;;;;;;14.07;3.28;;;;;;;;;;5051048;28;20089;-86
2021/08/18 12:54:27;;;;;;;6.38;3.25;;;;;;;;;;5050763;28;20123;-83
2021/08/18 12:56:57;;;;;;;8.63;3.75;;;;;;;;;;5049541;28;20045;-84
2021/08/18 12:59:26;;;;;;;14.82;4.38;;;;;;;;;;5050279;28;20061;-83
2021/08/18 13:01:54;;;;;;;9.52;3.80;;;;;;;;;;5049473;28;20052;-83
2021/08/18 13:04:22;;;;;;;11.13;3.90;;;;;;;;;;5049367;28;20045;-83
2021/08/18 13:06:49;;;;;;;10.68;3.47;;;;;;;;;;5049865;28;20049;-83
2021/08/18 13:09:16;;;;;;;17.65;4.13;;;;;;;;;;5049538;28;20069;-82
2021/08/18 13:11:45;;;;;;;8.75;3.58;;;;;;;;;;5049519;28;20045;-84
2021/08/18 13:14:13;;;;;;;7.45;3.28;;;;;;;;;;5051061;28;20048;-85
2021/08/18 13:16:40;;;;;;;7.72;3.72;;;;;;;;;;5034429;28;20084;-83
2021/08/18 13:19:08;;;;;;;9.85;3.67;;;;;;;;;;5050138;28;20049;-86
2021/08/18 13:21:35;;;;;;;12.30;3.60;;;;;;;;;;5050422;28;20049;-84
2021/08/18 13:24:08;;;;;;;9.63;3.55;;;;;;;;;;5050531;28;20061;-83
2021/08/18 13:26:41;;;;;;;8.20;4.35;;;;;;;;;;5050248;28;20080;-84
2021/08/18 13:29:08;;;;;;;11.88;5.13;;;;;;;;;;5052672;28;20130;-83
2021/08/18 13:31:36;;;;;;;16.17;4.10;;;;;;;;;;5053405;28;20099;-82
2021/08/18 13:34:04;;;;;;;10.35;4.15;;;;;;;;;;5052004;28;20467;-83
2021/08/18 13:36:31;;;;;;;16.27;4.45;;;;;;;;;;5053200;28;20087;-83
2021/08/18 13:38:59;;;;;;;14.35;3.97;;;;;;;;;;5053555;28;20135;-84
2021/08/18 13:41:27;;;;;;;6.45;3.63;;;;;;;;;;5051884;28;20157;-84
2021/08/18 13:43:55;;;;;;;11.50;4.43;;;;;;;;;;5052060;28;20072;-83
2021/08/18 13:46:26;;;;;;;8.25;3.97;;;;;;;;;;5053039;28;20049;-82
2021/08/18 13:48:55;;;;;;;17.60;4.20;;;;;;;;;;5053749;28;20064;-84
2021/08/18 13:51:24;;;;;;;10.82;3.88;;;;;;;;;;5053400;28;20045;-83
2021/08/18 13:53:52;;;;;;;10.65;4.22;;;;;;;;;;5052853;28;20056;-84
2021/08/18 13:56:19;;;;;;;9.40;4.05;;;;;;;;;;5045581;28;20049;-83
2021/08/18 13:58:57;;;;;;;9.90;3.78;;;;;;;;;;5053021;28;20045;-83
2021/08/18 14:01:24;;;;;;;10.45;4.53;;;;;;;;;;5053132;28;20397;-83
2021/08/18 14:03:53;;;;;;;12.48;3.60;;;;;;;;;;5050927;28;20474;-84
2021/08/18 14:06:20;;;;;;;8.52;3.25;;;;;;;;;;5052190;28;20049;-84
2021/08/18 14:08:49;;;;;;;8.63;4.05;;;;;;;;;;5052994;28;20558;-84
2021/08/18 14:11:16;;;;;;;12.90;4.45;;;;;;;;;;5051128;28;20124;-85
2021/08/18 14:13:45;;;;;;;9.02;4.00;;;;;;;;;;5051191;28;20709;-86
2021/08/18 14:16:13;;;;;;;9.95;3.97;;;;;;;;;;5052530;28;20055;-85
2021/08/18 14:18:40;;;;;;;12.20;4.70;;;;;;;;;;5051796;28;20826;-84
2021/08/18 14:21:08;;;;;;;10.32;4.47;;;;;;;;;;5051526;28;20123;-85
2021/08/18 14:23:37;;;;;;;14.75;4.20;;;;;;;;;;5051831;28;20144;-83
2021/08/18 14:26:05;;;;;;;7.40;3.83;;;;;;;;;;5051451;28;20080;-86
2021/08/18 14:28:33;;;;;;;13.27;4.32;;;;;;;;;;5050843;28;20048;-84
2021/08/18 14:31:01;;;;;;;15.57;4.10;;;;;;;;;;5052745;28;20061;-84
2021/08/18 14:33:28;;;;;;;10.45;3.90;;;;;;;;;;5049389;28;20121;-84
2021/08/18 14:35:56;;;;;;;10.52;4.43;;;;;;;;;;5048237;28;20136;-84
2021/08/18 14:38:24;;;;;;;16.45;4.57;;;;;;;;;;5049772;28;20466;-83
2021/08/18 14:40:51;;;;;;;9.07;4.32;;;;;;;;;;5047948;28;20080;-85
2021/08/18 14:43:19;;;;;;;14.20;4.30;;;;;;;;;;5044095;28;20749;-84
2021/08/18 14:45:46;;;;;;;11.07;4.25;;;;;;;;;;5049522;28;20136;-84